Time,TemperatureF,DewpointF,PressureIn,WindDirection,WindDirectionDegrees,WindSpeedMPH,WindSpeedGustMPH,Humidity,HourlyPrecipIn,Conditions,Clouds,dailyrainin,SoftwareType,DateUTC
2013-10-20 00:00:00,49.3,42.4,30.25,North,1,0.0,0.0,77,0.00,CLR,SKC,0.00,WeatherDisplay:10.37,2013-10-19 22:00:00,
2013-10-20 00:10:00,49.6,42.4,30.25,North,1,0.0,0.0,76,0.00,CLR,SKC,0.00,WeatherDisplay:10.37,2013-10-19 22:10:00,
2013-10-20 00:20:00,49.6,42.4,30.25,North,1,0.0,0.0,76,0.00,CLR,SKC,0.00,WeatherDisplay:10.37,2013-10-19 22:20:00,
2013-10-20 00:30:00,49.6,42.4,30.25,North,1,0.0,0.0,76,0.00,CLR,SKC,0.00,WeatherDisplay:10.37,2013-10-19 22:30:00,
2013-10-20 00:40:00,49.3,42.0,30.25,North,1,0.0,0.0,76,0.00,CLR,SKC,0.00,WeatherDisplay:10.37,2013-10-19 22:40:00,
2013-10-20 00:50:00,49.2,42.3,30.25,North,1,0.0,0.0,77,0.00,CLR,SKC,0.00,WeatherDisplay:10.37,2013-10-19 22:50:00,
2013-10-20 01:00:00,48.7,41.8,30.24,North,1,0.0,0.0,77,0.00,CLR,SKC,0.00,WeatherDisplay:10.37,2013-10-19 23:00:00,
2013-10-20 01:10:00,48.0,41.5,30.25,North,1,0.0,0.0,78,0.00,CLR,SKC,0.00,WeatherDisplay:10.37,2013-10-19 23:10:00,
2013-10-20 01:20:00,47.6,41.1,30.24,North,1,0.0,0.0,78,0.00,CLR,SKC,0.00,WeatherDisplay:10.37,2013-10-19 23:20:00,
2013-10-20 01:30:00,47.1,40.9,30.24,North,1,0.0,0.0,79,0.00,CLR,SKC,0.00,WeatherDisplay:10.37,2013-10-19 23:30:00,
2013-10-20 01:40:00,46.8,40.9,30.24,North,1,0.0,0.0,80,0.00,CLR,SKC,0.00,WeatherDisplay:10.37,2013-10-19 23:40:00,
2013-10-20 01:50:00,46.6,40.7,30.24,North,1,0.0,0.0,80,0.00,CLR,SKC,0.00,WeatherDisplay:10.37,2013-10-19 23:50:00,
2013-10-20 02:00:00,46.2,40.7,30.24,North,1,0.0,0.0,81,0.00,CLR,SKC,0.00,WeatherDisplay:10.37,2013-10-20 00:00:00,
2013-10-20 02:10:00,45.9,40.4,30.24,North,1,0.0,0.0,81,0.00,CLR,SKC,0.00,WeatherDisplay:10.37,2013-10-20 00:10:00,
2013-10-20 02:20:00,45.7,40.2,30.23,North,1,0.0,0.0,81,0.00,CLR,SKC,0.00,WeatherDisplay:10.37,2013-10-20 00:20:00,
2013-10-20 02:30:00,45.5,40.3,30.24,North,1,0.0,0.0,82,0.00,CLR,SKC,0.00,WeatherDisplay:10.37,2013-10-20 00:30:00,
2013-10-20 02:40:00,45.3,40.1,30.23,North,1,0.0,0.0,82,0.00,CLR,SKC,0.00,WeatherDisplay:10.37,2013-10-20 00:40:00,
2013-10-20 02:50:00,45.0,40.1,30.23,North,1,0.0,0.0,83,0.00,CLR,SKC,0.00,WeatherDisplay:10.37,2013-10-20 00:50:00,
2013-10-20 03:00:00,45.3,40.8,30.22,North,1,0.0,0.0,84,0.00,CLR,SKC,0.00,WeatherDisplay:10.37,2013-10-20 01:00:00,
2013-10-20 03:10:00,45.8,40.9,30.23,North,1,0.0,0.0,83,0.00,CLR,SKC,0.00,WeatherDisplay:10.37,2013-10-20 01:10:00,
2013-10-20 03:20:00,45.7,40.8,30.23,North,1,0.0,0.0,83,0.00,CLR,SKC,0.00,WeatherDisplay:10.37,2013-10-20 01:20:00,
2013-10-20 03:30:00,45.3,40.5,30.23,North,1,0.0,0.0,83,0.00,CLR,SKC,0.00,WeatherDisplay:10.37,2013-10-20 01:30:00,
2013-10-20 03:40:00,45.0,40.1,30.23,North,1,0.0,0.0,83,0.00,CLR,SKC,0.00,WeatherDisplay:10.37,2013-10-20 01:40:00,
2013-10-20 03:50:00,44.5,40.0,30.23,North,1,0.0,0.0,84,0.00,CLR,SKC,0.00,WeatherDisplay:10.37,2013-10-20 01:50:00,
2013-10-20 04:00:00,44.2,39.7,30.23,North,1,0.0,0.0,84,0.00,CLR,SKC,0.00,WeatherDisplay:10.37,2013-10-20 02:00:00,
2013-10-20 04:10:00,43.7,39.2,30.23,North,1,0.0,0.0,84,0.00,CLR,SKC,0.00,WeatherDisplay:10.37,2013-10-20 02:10:00,
2013-10-20 04:20:00,43.5,39.3,30.23,North,1,0.0,0.0,85,0.00,CLR,SKC,0.00,WeatherDisplay:10.37,2013-10-20 02:20:00,
2013-10-20 04:30:00,43.3,39.1,30.22,North,1,0.0,0.0,85,0.00,CLR,SKC,0.00,WeatherDisplay:10.37,2013-10-20 02:30:00,
2013-10-20 04:40:00,43.3,39.4,30.22,North,1,0.0,0.0,86,0.00,CLR,SKC,0.00,WeatherDisplay:10.37,2013-10-20 02:40:00,
2013-10-20 04:50:00,43.5,39.6,30.22,North,1,0.0,0.0,86,0.00,CLR,SKC,0.00,WeatherDisplay:10.37,2013-10-20 02:50:00,
2013-10-20 05:00:00,43.5,39.6,30.22,North,1,0.0,0.0,86,0.00,CLR,SKC,0.00,WeatherDisplay:10.37,2013-10-20 03:00:00,
2013-10-20 05:10:00,43.2,39.3,30.22,North,1,0.0,0.0,86,0.00,CLR,SKC,0.00,WeatherDisplay:10.37,2013-10-20 03:10:00,
2013-10-20 05:20:00,43.0,39.1,30.22,North,1,0.0,0.0,86,0.00,CLR,SKC,0.00,WeatherDisplay:10.37,2013-10-20 03:20:00,
2013-10-20 05:30:00,43.0,39.4,30.22,North,1,0.0,0.0,87,0.00,CLR,SKC,0.00,WeatherDisplay:10.37,2013-10-20 03:30:00,
2013-10-20 05:40:00,43.0,39.4,30.22,North,1,0.0,0.0,87,0.00,CLR,SKC,0.00,WeatherDisplay:10.37,2013-10-20 03:40:00,
2013-10-20 05:50:00,42.6,39.0,30.21,North,1,0.0,0.0,87,0.00,CLR,SKC,0.00,WeatherDisplay:10.37,2013-10-20 03:50:00,
2013-10-20 06:00:00,42.6,39.0,30.22,North,1,0.0,0.0,87,0.00,CLR,SKC,0.00,WeatherDisplay:10.37,2013-10-20 04:00:00,
2013-10-20 06:10:00,42.4,38.8,30.22,North,1,0.0,0.0,87,0.00,CLR,SKC,0.00,WeatherDisplay:10.37,2013-10-20 04:10:00,
2013-10-20 06:20:00,42.1,38.5,30.21,North,1,0.0,0.0,87,0.00,CLR,SKC,0.00,WeatherDisplay:10.37,2013-10-20 04:20:00,
2013-10-20 06:30:00,42.1,38.5,30.22,North,1,0.0,0.0,87,0.00,CLR,SKC,0.00,WeatherDisplay:10.37,2013-10-20 04:30:00,
2013-10-20 06:40:00,42.1,38.8,30.22,North,1,0.0,0.0,88,0.00,CLR,SKC,0.00,WeatherDisplay:10.37,2013-10-20 04:40:00,
2013-10-20 06:50:00,42.1,38.8,30.22,North,1,0.0,0.0,88,0.00,CLR,SKC,0.00,WeatherDisplay:10.37,2013-10-20 04:50:00,
2013-10-20 07:00:00,42.1,38.8,30.22,North,1,0.0,0.0,88,0.00,CLR,SKC,0.00,WeatherDisplay:10.37,2013-10-20 05:00:00,
2013-10-20 07:10:00,42.1,38.8,30.22,North,1,0.0,0.0,88,0.00,CLR,SKC,0.00,WeatherDisplay:10.37,2013-10-20 05:10:00,
2013-10-20 07:20:00,42.1,38.8,30.22,North,1,0.0,0.0,88,0.00,CLR,SKC,0.00,WeatherDisplay:10.37,2013-10-20 05:20:00,
2013-10-20 07:30:00,41.9,38.6,30.22,North,1,0.0,0.0,88,0.00,CLR,SKC,0.00,WeatherDisplay:10.37,2013-10-20 05:30:00,
2013-10-20 07:40:00,42.0,38.7,30.22,North,1,0.0,0.0,88,0.00,CLR,SKC,0.00,WeatherDisplay:10.37,2013-10-20 05:40:00,
2013-10-20 07:50:00,42.2,38.9,30.22,North,1,0.0,0.0,88,0.00,CLR,SKC,0.00,WeatherDisplay:10.37,2013-10-20 05:50:00,
2013-10-20 08:00:00,42.4,39.1,30.22,North,1,0.0,0.0,88,0.00,CLR,SKC,0.00,WeatherDisplay:10.37,2013-10-20 06:00:00,
2013-10-20 08:10:00,42.6,39.3,30.22,North,1,0.0,0.0,88,0.00,CLR,SKC,0.00,WeatherDisplay:10.37,2013-10-20 06:10:00,
2013-10-20 08:20:00,42.6,39.6,30.23,North,1,0.0,0.0,89,0.00,CLR,SKC,0.00,WeatherDisplay:10.37,2013-10-20 06:20:00,
2013-10-20 08:30:00,43.2,40.1,30.23,North,1,0.0,0.0,89,0.00,CLR,SKC,0.00,WeatherDisplay:10.37,2013-10-20 06:30:00,
2013-10-20 08:40:00,44.2,40.9,30.23,North,1,0.0,0.0,88,0.00,CLR,SKC,0.00,WeatherDisplay:10.37,2013-10-20 06:40:00,
2013-10-20 08:50:00,44.8,41.4,30.23,North,1,0.0,0.0,88,0.00,CLR,SKC,0.00,WeatherDisplay:10.37,2013-10-20 06:50:00,
2013-10-20 09:00:00,45.1,41.8,30.24,North,1,0.0,0.0,88,0.00,CLR,SKC,0.00,WeatherDisplay:10.37,2013-10-20 07:00:00,
2013-10-20 09:10:00,46.3,42.6,30.24,North,1,0.0,0.0,87,0.00,CLR,SKC,0.00,WeatherDisplay:10.37,2013-10-20 07:10:00,
2013-10-20 09:20:00,47.3,43.3,30.24,North,1,0.0,0.0,86,0.00,CLR,SKC,0.00,WeatherDisplay:10.37,2013-10-20 07:20:00,
2013-10-20 09:30:00,48.0,44.0,30.24,North,1,0.0,0.0,86,0.00,CLR,SKC,0.00,WeatherDisplay:10.37,2013-10-20 07:30:00,
2013-10-20 09:40:00,50.2,45.5,30.22,North,1,0.0,0.0,84,0.00,CLR,SKC,0.00,WeatherDisplay:10.37,2013-10-20 07:40:00,
2013-10-20 09:50:00,51.9,45.9,30.23,North,1,0.0,0.0,80,0.00,CLR,SKC,0.00,WeatherDisplay:10.37,2013-10-20 07:50:00,
2013-10-20 10:00:00,52.5,46.2,30.24,North,1,0.0,0.0,79,0.00,CLR,SKC,0.00,WeatherDisplay:10.37,2013-10-20 08:00:00,
2013-10-20 10:10:00,53.6,46.2,30.24,North,1,0.0,0.0,76,0.00,CLR,SKC,0.00,WeatherDisplay:10.37,2013-10-20 08:10:00,
2013-10-20 10:20:00,54.2,46.5,30.24,North,1,0.0,0.0,75,0.00,CLR,SKC,0.00,WeatherDisplay:10.37,2013-10-20 08:20:00,
2013-10-20 10:30:00,55.2,47.0,30.24,North,1,0.0,0.0,74,0.00,CLR,SKC,0.00,WeatherDisplay:10.37,2013-10-20 08:30:00,
2013-10-20 10:40:00,56.1,47.2,30.23,North,1,0.0,0.0,72,0.00,CLR,SKC,0.00,WeatherDisplay:10.37,2013-10-20 08:40:00,
2013-10-20 10:50:00,57.0,47.7,30.23,North,1,0.0,0.0,71,0.00,CLR,SKC,0.00,WeatherDisplay:10.37,2013-10-20 08:50:00,
2013-10-20 11:00:00,57.6,47.9,30.24,North,1,0.0,0.0,70,0.00,CLR,SKC,0.00,WeatherDisplay:10.37,2013-10-20 09:00:00,
2013-10-20 11:10:00,58.8,48.7,30.23,North,1,0.0,0.0,69,0.00,CLR,SKC,0.00,WeatherDisplay:10.37,2013-10-20 09:10:00,
2013-10-20 11:20:00,60.1,48.7,30.23,North,1,0.0,0.0,66,0.00,CLR,SKC,0.00,WeatherDisplay:10.37,2013-10-20 09:20:00,
2013-10-20 11:30:00,60.6,49.2,30.23,North,1,0.0,0.0,66,0.00,CLR,SKC,0.00,WeatherDisplay:10.37,2013-10-20 09:30:00,
2013-10-20 11:40:00,60.6,49.2,30.22,North,1,0.0,0.0,66,0.00,CLR,SKC,0.00,WeatherDisplay:10.37,2013-10-20 09:40:00,
2013-10-20 11:50:00,61.9,50.0,30.22,North,1,0.0,0.0,65,0.00,CLR,SKC,0.00,WeatherDisplay:10.37,2013-10-20 09:50:00,
2013-10-20 12:00:00,62.6,49.8,30.22,North,1,0.0,0.0,63,0.00,CLR,SKC,0.00,WeatherDisplay:10.37,2013-10-20 10:00:00,
2013-10-20 12:10:00,62.6,49.8,30.22,North,1,0.0,0.0,63,0.00,CLR,SKC,0.00,WeatherDisplay:10.37,2013-10-20 10:10:00,
2013-10-20 12:20:00,63.0,50.2,30.22,North,1,0.0,0.0,63,0.00,CLR,SKC,0.00,WeatherDisplay:10.37,2013-10-20 10:20:00,
2013-10-20 12:30:00,63.5,50.2,30.22,North,1,0.0,0.0,62,0.00,CLR,SKC,0.00,WeatherDisplay:10.37,2013-10-20 10:30:00,
2013-10-20 12:40:00,63.3,50.5,30.21,North,1,0.0,0.0,63,0.00,CLR,SKC,0.00,WeatherDisplay:10.37,2013-10-20 10:40:00,
2013-10-20 12:50:00,63.5,50.7,30.21,North,1,0.0,0.0,63,0.00,CLR,SKC,0.00,WeatherDisplay:10.37,2013-10-20 10:50:00,
2013-10-20 13:00:00,64.0,51.2,30.20,North,1,0.0,0.0,63,0.00,CLR,SKC,0.00,WeatherDisplay:10.37,2013-10-20 11:00:00,
2013-10-20 13:10:00,64.4,51.1,30.20,North,1,0.0,0.0,62,0.00,CLR,SKC,0.00,WeatherDisplay:10.37,2013-10-20 11:10:00,
2013-10-20 13:20:00,64.6,50.8,30.19,North,1,0.0,0.0,61,0.00,CLR,SKC,0.00,WeatherDisplay:10.37,2013-10-20 11:20:00,
2013-10-20 13:30:00,64.9,50.2,30.19,North,1,0.0,0.0,59,0.00,CLR,SKC,0.00,WeatherDisplay:10.37,2013-10-20 11:30:00,
2013-10-20 13:40:00,66.0,50.8,30.19,North,1,0.0,0.0,58,0.00,CLR,SKC,0.00,WeatherDisplay:10.37,2013-10-20 11:40:00,
2013-10-20 13:50:00,66.8,51.1,30.17,North,1,0.0,0.0,57,0.00,CLR,SKC,0.00,WeatherDisplay:10.37,2013-10-20 11:50:00,
2013-10-20 14:00:00,67.8,52.0,30.17,North,1,0.0,0.0,57,0.00,CLR,SKC,0.00,WeatherDisplay:10.37,2013-10-20 12:00:00,
2013-10-20 14:10:00,67.8,51.1,30.17,North,1,0.0,0.0,55,0.00,CLR,SKC,0.00,WeatherDisplay:10.37,2013-10-20 12:10:00,
2013-10-20 14:20:00,68.2,51.4,30.16,North,1,0.0,0.0,55,0.00,CLR,SKC,0.00,WeatherDisplay:10.37,2013-10-20 12:20:00,
2013-10-20 14:30:00,68.5,51.7,30.16,North,1,0.0,0.0,55,0.00,CLR,SKC,0.00,WeatherDisplay:10.37,2013-10-20 12:30:00,
2013-10-20 14:40:00,69.3,51.9,30.16,North,1,0.0,0.0,54,0.00,CLR,SKC,0.00,WeatherDisplay:10.37,2013-10-20 12:40:00,
2013-10-20 14:50:00,69.4,52.6,30.16,North,1,0.0,0.0,55,0.00,CLR,SKC,0.00,WeatherDisplay:10.37,2013-10-20 12:50:00,
2013-10-20 15:00:00,69.8,52.4,30.15,North,1,0.0,0.0,54,0.00,CLR,SKC,0.00,WeatherDisplay:10.37,2013-10-20 13:00:00,
2013-10-20 15:10:00,70.0,52.6,30.15,North,1,0.0,0.0,54,0.00,CLR,SKC,0.00,WeatherDisplay:10.37,2013-10-20 13:10:00,
2013-10-20 15:20:00,69.3,52.4,30.15,North,1,0.0,0.0,55,0.00,CLR,SKC,0.00,WeatherDisplay:10.37,2013-10-20 13:20:00,
2013-10-20 15:30:00,69.1,52.2,30.15,North,1,0.0,0.0,55,0.00,CLR,SKC,0.00,WeatherDisplay:10.37,2013-10-20 13:30:00,
2013-10-20 15:40:00,68.8,52.4,30.15,North,1,0.0,0.0,56,0.00,CLR,SKC,0.00,WeatherDisplay:10.37,2013-10-20 13:40:00,
2013-10-20 15:50:00,68.9,52.5,30.15,North,1,0.0,0.0,56,0.00,CLR,SKC,0.00,WeatherDisplay:10.37,2013-10-20 13:50:00,
2013-10-20 16:00:00,69.1,52.7,30.14,North,1,0.0,0.0,56,0.00,CLR,SKC,0.00,WeatherDisplay:10.37,2013-10-20 14:00:00,
2013-10-20 16:10:00,68.4,52.5,30.14,North,1,0.0,0.0,57,0.00,CLR,SKC,0.00,WeatherDisplay:10.37,2013-10-20 14:10:00,
2013-10-20 16:20:00,67.6,52.3,30.14,North,1,0.0,0.0,58,0.00,CLR,SKC,0.00,WeatherDisplay:10.37,2013-10-20 14:20:00,
2013-10-20 16:30:00,67.3,52.5,30.14,North,1,0.0,0.0,59,0.00,CLR,SKC,0.00,WeatherDisplay:10.37,2013-10-20 14:30:00,
2013-10-20 16:40:00,67.1,52.7,30.14,North,1,0.0,0.0,60,0.00,CLR,SKC,0.00,WeatherDisplay:10.37,2013-10-20 14:40:00,
2013-10-20 16:50:00,66.9,53.0,30.14,North,1,0.0,0.0,61,0.00,CLR,SKC,0.00,WeatherDisplay:10.37,2013-10-20 14:50:00,
2013-10-20 17:00:00,66.7,53.3,30.14,North,1,0.0,0.0,62,0.00,CLR,SKC,0.00,WeatherDisplay:10.37,2013-10-20 15:00:00,
2013-10-20 17:10:00,66.4,53.0,30.14,North,1,0.0,0.0,62,0.00,CLR,SKC,0.00,WeatherDisplay:10.37,2013-10-20 15:10:00,
2013-10-20 17:20:00,66.0,52.6,30.14,North,1,0.0,0.0,62,0.00,CLR,SKC,0.00,WeatherDisplay:10.37,2013-10-20 15:20:00,
2013-10-20 17:30:00,65.5,53.0,30.14,North,1,0.0,0.0,64,0.00,CLR,SKC,0.00,WeatherDisplay:10.37,2013-10-20 15:30:00,
2013-10-20 17:40:00,65.1,53.1,30.14,North,1,0.0,0.0,65,0.00,CLR,SKC,0.00,WeatherDisplay:10.37,2013-10-20 15:40:00,
2013-10-20 17:50:00,64.6,52.5,30.14,North,1,0.0,0.0,65,0.00,CLR,SKC,0.00,WeatherDisplay:10.37,2013-10-20 15:50:00,
2013-10-20 18:00:00,64.0,52.4,30.14,North,1,0.0,0.0,66,0.00,CLR,SKC,0.00,WeatherDisplay:10.37,2013-10-20 16:00:00,
2013-10-20 18:10:00,63.3,53.0,30.14,North,1,0.0,0.0,69,0.00,CLR,SKC,0.00,WeatherDisplay:10.37,2013-10-20 16:10:00,
2013-10-20 18:20:00,62.6,52.7,30.14,North,1,0.0,0.0,70,0.00,CLR,SKC,0.00,WeatherDisplay:10.37,2013-10-20 16:20:00,
2013-10-20 18:30:00,62.2,52.7,30.14,North,1,0.0,0.0,71,0.00,CLR,SKC,0.00,WeatherDisplay:10.37,2013-10-20 16:30:00,
2013-10-20 18:40:00,62.1,52.5,30.14,North,1,0.0,0.0,71,0.00,CLR,SKC,0.00,WeatherDisplay:10.37,2013-10-20 16:40:00,
2013-10-20 18:50:00,62.2,52.7,30.14,North,1,0.0,0.0,71,0.00,CLR,SKC,0.00,WeatherDisplay:10.37,2013-10-20 16:50:00,
2013-10-20 19:00:00,62.4,52.5,30.14,North,1,0.0,0.0,70,0.00,CLR,SKC,0.00,WeatherDisplay:10.37,2013-10-20 17:00:00,
2013-10-20 19:10:00,62.8,52.5,30.14,North,1,0.0,0.0,69,0.00,CLR,SKC,0.00,WeatherDisplay:10.37,2013-10-20 17:10:00,
2013-10-20 19:20:00,62.8,52.1,30.14,North,1,0.0,0.0,68,0.00,CLR,SKC,0.00,WeatherDisplay:10.37,2013-10-20 17:20:00,
2013-10-20 19:30:00,62.8,52.0,30.14,North,1,0.0,0.0,68,0.00,CLR,SKC,0.00,WeatherDisplay:10.37,2013-10-20 17:30:00,
2013-10-20 19:40:00,62.6,51.9,30.14,North,1,0.0,0.0,68,0.00,CLR,SKC,0.00,WeatherDisplay:10.37,2013-10-20 17:40:00,
2013-10-20 19:50:00,62.8,52.1,30.13,North,1,0.0,0.0,68,0.00,CLR,SKC,0.00,WeatherDisplay:10.37,2013-10-20 17:50:00,
2013-10-20 20:00:00,62.8,52.1,30.14,North,1,0.0,0.0,68,0.00,CLR,SKC,0.00,WeatherDisplay:10.37,2013-10-20 18:00:00,
2013-10-20 20:10:00,62.8,52.1,30.13,North,1,0.0,0.0,68,0.00,CLR,SKC,0.00,WeatherDisplay:10.37,2013-10-20 18:10:00,
2013-10-20 20:20:00,62.6,51.9,30.13,North,1,0.0,0.0,68,0.00,CLR,SKC,0.00,WeatherDisplay:10.37,2013-10-20 18:20:00,
2013-10-20 20:30:00,62.6,51.9,30.13,North,1,0.0,0.0,68,0.00,CLR,SKC,0.00,WeatherDisplay:10.37,2013-10-20 18:30:00,
2013-10-20 20:40:00,62.2,51.9,30.13,North,1,0.0,0.0,69,0.00,CLR,SKC,0.00,WeatherDisplay:10.37,2013-10-20 18:40:00,
2013-10-20 20:50:00,62.2,52.3,30.13,North,1,0.0,0.0,70,0.00,CLR,SKC,0.00,WeatherDisplay:10.37,2013-10-20 18:50:00,
2013-10-20 21:00:00,62.2,52.3,30.13,North,1,0.0,0.0,70,0.00,CLR,SKC,0.00,WeatherDisplay:10.37,2013-10-20 19:00:00,
2013-10-20 21:10:00,62.2,52.3,30.14,North,1,0.0,0.0,70,0.00,CLR,SKC,0.00,WeatherDisplay:10.37,2013-10-20 19:10:00,
2013-10-20 21:20:00,62.4,52.5,30.13,North,1,0.0,0.0,70,0.00,CLR,SKC,0.00,WeatherDisplay:10.37,2013-10-20 19:20:00,
2013-10-20 21:30:00,62.2,51.9,30.13,North,1,0.0,0.0,69,0.00,CLR,SKC,0.00,WeatherDisplay:10.37,2013-10-20 19:30:00,
2013-10-20 21:40:00,62.1,51.8,30.13,North,1,0.0,0.0,69,0.00,CLR,SKC,0.00,WeatherDisplay:10.37,2013-10-20 19:40:00,
2013-10-20 21:50:00,61.9,51.2,30.12,North,1,0.0,0.0,68,0.00,CLR,SKC,0.00,WeatherDisplay:10.37,2013-10-20 19:50:00,
2013-10-20 22:00:00,61.7,51.0,30.13,North,1,0.0,0.0,68,0.00,CLR,SKC,0.00,WeatherDisplay:10.37,2013-10-20 20:00:00,
2013-10-20 22:10:00,61.7,51.0,30.13,North,1,0.0,0.0,68,0.00,CLR,SKC,0.00,WeatherDisplay:10.37,2013-10-20 20:10:00,
2013-10-20 22:20:00,61.5,50.5,30.13,North,1,0.0,0.0,67,0.00,CLR,SKC,0.00,WeatherDisplay:10.37,2013-10-20 20:20:00,
2013-10-20 22:30:00,61.5,50.5,30.12,North,1,0.0,0.0,67,0.00,CLR,SKC,0.00,WeatherDisplay:10.37,2013-10-20 20:30:00,
2013-10-20 22:40:00,61.5,50.5,30.13,North,1,0.0,0.0,67,0.00,CLR,SKC,0.00,WeatherDisplay:10.37,2013-10-20 20:40:00,
2013-10-20 22:50:00,61.5,50.5,30.12,North,1,0.0,0.0,67,0.00,CLR,SKC,0.00,WeatherDisplay:10.37,2013-10-20 20:50:00,
2013-10-20 23:00:00,61.3,50.3,30.12,North,1,0.0,0.0,67,0.00,CLR,SKC,0.00,WeatherDisplay:10.37,2013-10-20 21:00:00,
2013-10-20 23:10:00,60.6,50.0,30.11,North,1,0.0,0.0,68,0.00,CLR,SKC,0.00,WeatherDisplay:10.37,2013-10-20 21:10:00,
2013-10-20 23:20:00,59.9,49.7,30.12,North,1,0.0,0.0,69,0.00,CLR,SKC,0.00,WeatherDisplay:10.37,2013-10-20 21:20:00,
2013-10-20 23:30:00,59.5,49.7,30.11,North,1,0.0,0.0,70,0.00,CLR,SKC,0.00,WeatherDisplay:10.37,2013-10-20 21:30:00,
2013-10-20 23:40:00,58.8,49.4,30.12,North,1,0.0,0.0,71,0.00,CLR,SKC,0.00,WeatherDisplay:10.37,2013-10-20 21:40:00,
2013-10-20 23:50:00,58.3,49.3,30.11,North,1,0.0,0.0,72,0.00,CLR,SKC,0.00,WeatherDisplay:10.37,2013-10-20 21:50:00,